sensor_id;sensor_type;location;lat;lon;timestamp;pressure;altitude;pressure_sealevel;temperature;humidity
10958;BME280;5531;42.570;23.676;2022-07-10T00:00:46;92010.97;;;15.27;100.00
10958;BME280;5531;42.570;23.676;2022-07-10T00:03:15;91999.38;;;15.28;100.00
10958;BME280;5531;42.570;23.676;2022-07-10T00:05:47;92000.66;;;15.26;100.00
10958;BME280;5531;42.570;23.676;2022-07-10T00:08:16;92000.41;;;15.27;100.00
10958;BME280;5531;42.570;23.676;2022-07-10T00:10:45;91995.94;;;15.28;100.00
10958;BME280;5531;42.570;23.676;2022-07-10T00:13:14;91984.81;;;15.26;100.00
10958;BME280;5531;42.570;23.676;2022-07-10T00:15:44;91986.06;;;15.23;100.00
10958;BME280;5531;42.570;23.676;2022-07-10T00:18:13;91973.75;;;15.17;100.00
10958;BME280;5531;42.570;23.676;2022-07-10T00:20:42;91977.00;;;15.19;100.00
10958;BME280;5531;42.570;23.676;2022-07-10T00:23:14;91961.72;;;15.21;100.00
10958;BME280;5531;42.570;23.676;2022-07-10T00:25:43;91970.00;;;15.25;100.00
10958;BME280;5531;42.570;23.676;2022-07-10T00:28:13;91962.63;;;15.15;100.00
10958;BME280;5531;42.570;23.676;2022-07-10T00:30:42;91962.31;;;15.23;100.00
10958;BME280;5531;42.570;23.676;2022-07-10T00:33:11;91963.78;;;15.19;100.00
10958;BME280;5531;42.570;23.676;2022-07-10T00:35:40;91956.78;;;15.25;100.00
10958;BME280;5531;42.570;23.676;2022-07-10T00:38:09;91957.38;;;15.27;100.00
10958;BME280;5531;42.570;23.676;2022-07-10T00:40:41;91958.03;;;15.22;100.00
10958;BME280;5531;42.570;23.676;2022-07-10T00:43:10;91958.41;;;15.26;100.00
10958;BME280;5531;42.570;23.676;2022-07-10T00:45:39;91968.16;;;15.25;100.00
10958;BME280;5531;42.570;23.676;2022-07-10T00:48:09;91962.53;;;15.21;100.00
10958;BME280;5531;42.570;23.676;2022-07-10T00:50:38;91967.13;;;15.26;100.00
10958;BME280;5531;42.570;23.676;2022-07-10T00:53:09;91960.84;;;15.27;100.00
10958;BME280;5531;42.570;23.676;2022-07-10T00:55:41;91962.31;;;15.23;100.00
10958;BME280;5531;42.570;23.676;2022-07-10T00:58:13;91959.00;;;15.28;100.00
10958;BME280;5531;42.570;23.676;2022-07-10T01:00:42;91956.00;;;15.24;100.00
10958;BME280;5531;42.570;23.676;2022-07-10T01:03:11;91952.09;;;15.27;100.00
10958;BME280;5531;42.570;23.676;2022-07-10T01:05:40;91945.78;;;15.28;100.00
10958;BME280;5531;42.570;23.676;2022-07-10T01:08:09;91948.44;;;15.28;100.00
10958;BME280;5531;42.570;23.676;2022-07-10T01:10:41;91948.78;;;15.31;100.00
10958;BME280;5531;42.570;23.676;2022-07-10T01:13:10;91947.63;;;15.27;100.00
10958;BME280;5531;42.570;23.676;2022-07-10T01:15:39;91946.91;;;15.20;100.00
10958;BME280;5531;42.570;23.676;2022-07-10T01:18:09;91943.59;;;15.25;100.00
10958;BME280;5531;42.570;23.676;2022-07-10T01:20:38;91945.78;;;15.28;100.00
10958;BME280;5531;42.570;23.676;2022-07-10T01:23:10;91943.03;;;15.23;100.00
10958;BME280;5531;42.570;23.676;2022-07-10T01:25:39;91948.09;;;15.24;100.00
10958;BME280;5531;42.570;23.676;2022-07-10T01:28:08;91950.84;;;15.29;100.00
10958;BME280;5531;42.570;23.676;2022-07-10T01:30:37;91929.00;;;15.22;100.00
10958;BME280;5531;42.570;23.676;2022-07-10T01:33:06;91935.69;;;15.25;100.00
10958;BME280;5531;42.570;23.676;2022-07-10T01:35:36;91932.03;;;15.26;100.00
10958;BME280;5531;42.570;23.676;2022-07-10T01:38:05;91928.34;;;15.27;100.00
10958;BME280;5531;42.570;23.676;2022-07-10T01:40:37;91925.34;;;15.23;100.00
10958;BME280;5531;42.570;23.676;2022-07-10T01:43:06;91925.00;;;15.19;100.00
10958;BME280;5531;42.570;23.676;2022-07-10T01:45:35;91922.13;;;15.21;100.00
10958;BME280;5531;42.570;23.676;2022-07-10T01:48:05;91926.63;;;15.20;100.00
10958;BME280;5531;42.570;23.676;2022-07-10T01:50:34;91925.47;;;15.16;100.00
10958;BME280;5531;42.570;23.676;2022-07-10T01:53:04;91923.84;;;15.15;100.00
10958;BME280;5531;42.570;23.676;2022-07-10T01:55:36;91923.84;;;15.15;100.00
10958;BME280;5531;42.570;23.676;2022-07-10T01:58:05;91930.63;;;15.11;100.00
10958;BME280;5531;42.570;23.676;2022-07-10T02:00:34;91930.16;;;15.14;100.00
10958;BME280;5531;42.570;23.676;2022-07-10T02:03:03;91927.97;;;15.11;100.00
10958;BME280;5531;42.570;23.676;2022-07-10T02:05:45;91920.06;;;15.11;100.00
10958;BME280;5531;42.570;23.676;2022-07-10T02:08:14;91929.00;;;15.10;100.00
10958;BME280;5531;42.570;23.676;2022-07-10T02:10:46;91919.50;;;15.09;100.00
10958;BME280;5531;42.570;23.676;2022-07-10T02:13:15;91924.16;;;15.07;100.00
10958;BME280;5531;42.570;23.676;2022-07-10T02:15:46;91919.34;;;15.04;100.00
10958;BME280;5531;42.570;23.676;2022-07-10T02:18:15;91930.25;;;15.08;100.00
10958;BME280;5531;42.570;23.676;2022-07-10T02:20:44;91919.72;;;15.08;100.00
10958;BME280;5531;42.570;23.676;2022-07-10T02:23:13;91929.75;;;14.99;100.00
10958;BME280;5531;42.570;23.676;2022-07-10T02:25:45;91927.13;;;14.99;100.00
10958;BME280;5531;42.570;23.676;2022-07-10T02:28:14;91927.50;;;15.02;100.00
10958;BME280;5531;42.570;23.676;2022-07-10T02:30:43;91925.16;;;14.94;100.00
10958;BME280;5531;42.570;23.676;2022-07-10T02:33:12;91933.91;;;14.95;100.00
10958;BME280;5531;42.570;23.676;2022-07-10T02:35:41;91928.84;;;14.93;100.00
10958;BME280;5531;42.570;23.676;2022-07-10T02:38:10;91926.34;;;14.98;100.00
10958;BME280;5531;42.570;23.676;2022-07-10T02:40:39;91932.41;;;14.99;100.00
10958;BME280;5531;42.570;23.676;2022-07-10T02:43:11;91924.59;;;14.92;100.00
10958;BME280;5531;42.570;23.676;2022-07-10T02:45:40;91921.16;;;14.92;100.00
10958;BME280;5531;42.570;23.676;2022-07-10T02:48:09;91921.63;;;15.00;100.00
10958;BME280;5531;42.570;23.676;2022-07-10T02:50:38;91930.44;;;14.94;100.00
10958;BME280;5531;42.570;23.676;2022-07-10T02:53:07;91937.56;;;14.94;100.00
10958;BME280;5531;42.570;23.676;2022-07-10T02:55:37;91936.97;;;14.92;100.00
10958;BME280;5531;42.570;23.676;2022-07-10T02:58:06;91941.38;;;14.98;100.00
10958;BME280;5531;42.570;23.676;2022-07-10T03:00:38;91939.28;;;15.00;100.00
10958;BME280;5531;42.570;23.676;2022-07-10T03:03:07;91949.84;;;15.00;100.00
10958;BME280;5531;42.570;23.676;2022-07-10T03:05:36;91935.97;;;14.93;100.00
10958;BME280;5531;42.570;23.676;2022-07-10T03:08:05;91930.91;;;14.91;100.00
10958;BME280;5531;42.570;23.676;2022-07-10T03:10:35;91933.16;;;14.88;100.00
10958;BME280;5531;42.570;23.676;2022-07-10T03:13:04;91938.00;;;14.91;100.00
10958;BME280;5531;42.570;23.676;2022-07-10T03:15:33;91932.50;;;14.92;100.00
10958;BME280;5531;42.570;23.676;2022-07-10T03:18:05;91940.19;;;14.94;100.00
10958;BME280;5531;42.570;23.676;2022-07-10T03:20:34;91940.19;;;14.94;100.00
10958;BME280;5531;42.570;23.676;2022-07-10T03:23:03;91939.28;;;15.00;100.00
10958;BME280;5531;42.570;23.676;2022-07-10T03:25:32;91937.69;;;14.99;100.00
10958;BME280;5531;42.570;23.676;2022-07-10T03:28:02;91939.75;;;14.97;100.00
10958;BME280;5531;42.570;23.676;2022-07-10T03:30:31;91935.41;;;15.02;100.00
10958;BME280;5531;42.570;23.676;2022-07-10T03:33:00;91935.16;;;15.04;100.00
10958;BME280;5531;42.570;23.676;2022-07-10T03:35:32;91941.84;;;15.07;100.00
10958;BME280;5531;42.570;23.676;2022-07-10T03:38:01;91941.94;;;15.00;100.00
10958;BME280;5531;42.570;23.676;2022-07-10T03:40:31;91938.13;;;14.96;100.00
10958;BME280;5531;42.570;23.676;2022-07-10T03:43:00;91939.06;;;15.01;100.00
10958;BME280;5531;42.570;23.676;2022-07-10T03:45:29;91935.03;;;14.99;100.00
10958;BME280;5531;42.570;23.676;2022-07-10T03:47:58;91944.56;;;15.00;100.00
10958;BME280;5531;42.570;23.676;2022-07-10T03:50:27;91929.41;;;14.95;100.00
10958;BME280;5531;42.570;23.676;2022-07-10T03:52:59;91938.00;;;14.91;100.00
10958;BME280;5531;42.570;23.676;2022-07-10T03:55:29;91937.09;;;14.97;100.00
10958;BME280;5531;42.570;23.676;2022-07-10T03:57:58;91933.22;;;14.99;100.00
10958;BME280;5531;42.570;23.676;2022-07-10T04:00:29;91939.97;;;14.95;100.00
10958;BME280;5531;42.570;23.676;2022-07-10T04:03:02;91921.72;;;14.94;100.00
10958;BME280;5531;42.570;23.676;2022-07-10T04:05:32;91931.25;;;14.95;100.00
10958;BME280;5531;42.570;23.676;2022-07-10T04:08:04;91936.97;;;14.92;100.00
10958;BME280;5531;42.570;23.676;2022-07-10T04:10:35;91944.44;;;14.95;100.00
10958;BME280;5531;42.570;23.676;2022-07-10T04:13:04;91938.34;;;14.94;100.00
10958;BME280;5531;42.570;23.676;2022-07-10T04:15:33;91925.97;;;14.95;100.00
10958;BME280;5531;42.570;23.676;2022-07-10T04:18:03;91925.09;;;15.01;100.00
10958;BME280;5531;42.570;23.676;2022-07-10T04:20:32;91927.94;;;14.99;100.00
10958;BME280;5531;42.570;23.676;2022-07-10T04:23:04;91929.44;;;15.07;100.00
10958;BME280;5531;42.570;23.676;2022-07-10T04:25:33;91933.13;;;15.06;100.00
10958;BME280;5531;42.570;23.676;2022-07-10T04:28:02;91922.13;;;15.09;100.00
10958;BME280;5531;42.570;23.676;2022-07-10T04:30:32;91927.06;;;15.17;100.00
10958;BME280;5531;42.570;23.676;2022-07-10T04:33:01;91925.91;;;15.13;100.00
10958;BME280;5531;42.570;23.676;2022-07-10T04:35:31;91918.22;;;15.24;100.00
10958;BME280;5531;42.570;23.676;2022-07-10T04:38:00;91925.25;;;15.30;100.00
10958;BME280;5531;42.570;23.676;2022-07-10T04:40:32;91918.16;;;15.30;100.00
10958;BME280;5531;42.570;23.676;2022-07-10T04:43:01;91923.66;;;15.40;100.00
10958;BME280;5531;42.570;23.676;2022-07-10T04:45:30;91928.72;;;15.42;100.00
10958;BME280;5531;42.570;23.676;2022-07-10T04:47:59;91918.38;;;15.40;100.00
10958;BME280;5531;42.570;23.676;2022-07-10T04:50:29;91919.75;;;15.43;100.00
10958;BME280;5531;42.570;23.676;2022-07-10T04:52:58;91920.34;;;15.45;100.00
10958;BME280;5531;42.570;23.676;2022-07-10T04:55:27;91920.34;;;15.45;99.81
10958;BME280;5531;42.570;23.676;2022-07-10T04:57:59;91921.59;;;15.43;100.00
10958;BME280;5531;42.570;23.676;2022-07-10T05:00:29;91919.53;;;15.45;100.00
10958;BME280;5531;42.570;23.676;2022-07-10T05:02:58;91919.28;;;15.46;100.00
10958;BME280;5531;42.570;23.676;2022-07-10T05:05:28;91922.31;;;15.50;100.00
10958;BME280;5531;42.570;23.676;2022-07-10T05:07:57;91931.25;;;15.49;100.00
10958;BME280;5531;42.570;23.676;2022-07-10T05:10:26;91925.50;;;15.52;100.00
10958;BME280;5531;42.570;23.676;2022-07-10T05:12:55;91914.84;;;15.58;100.00
10958;BME280;5531;42.570;23.676;2022-07-10T05:15:27;91912.75;;;15.61;100.00
10958;BME280;5531;42.570;23.676;2022-07-10T05:17:57;91912.97;;;15.71;99.95
10958;BME280;5531;42.570;23.676;2022-07-10T05:20:26;91918.44;;;15.76;99.68
10958;BME280;5531;42.570;23.676;2022-07-10T05:22:55;91909.66;;;15.75;99.77
10958;BME280;5531;42.570;23.676;2022-07-10T05:25:25;91911.19;;;15.83;99.86
10958;BME280;5531;42.570;23.676;2022-07-10T05:27:56;91918.09;;;15.84;99.36
10958;BME280;5531;42.570;23.676;2022-07-10T05:30:28;91919.44;;;15.87;99.96
10958;BME280;5531;42.570;23.676;2022-07-10T05:32:57;91919.22;;;15.88;99.69
10958;BME280;5531;42.570;23.676;2022-07-10T05:35:28;91917.28;;;15.96;99.57
10958;BME280;5531;42.570;23.676;2022-07-10T05:38:00;91920.25;;;15.99;99.52
10958;BME280;5531;42.570;23.676;2022-07-10T05:40:29;91910.25;;;16.01;98.86
10958;BME280;5531;42.570;23.676;2022-07-10T05:42:59;91920.78;;;16.13;99.38
10958;BME280;5531;42.570;23.676;2022-07-10T05:45:31;91927.00;;;16.19;99.78
10958;BME280;5531;42.570;23.676;2022-07-10T05:48:00;91921.16;;;16.17;99.66
10958;BME280;5531;42.570;23.676;2022-07-10T05:50:30;91926.97;;;16.30;99.66
10958;BME280;5531;42.570;23.676;2022-07-10T05:52:59;91913.66;;;16.25;98.86
10958;BME280;5531;42.570;23.676;2022-07-10T05:55:29;91914.59;;;16.19;99.47
10958;BME280;5531;42.570;23.676;2022-07-10T05:57:58;91911.69;;;16.33;99.14
10958;BME280;5531;42.570;23.676;2022-07-10T06:00:30;91912.13;;;16.41;98.45
10958;BME280;5531;42.570;23.676;2022-07-10T06:02:59;91912.56;;;16.50;97.65
10958;BME280;5531;42.570;23.676;2022-07-10T06:05:29;91920.59;;;16.55;96.87
10958;BME280;5531;42.570;23.676;2022-07-10T06:07:58;91919.09;;;16.59;96.82
10958;BME280;5531;42.570;23.676;2022-07-10T06:10:27;91927.13;;;16.64;96.69
10958;BME280;5531;42.570;23.676;2022-07-10T06:12:56;91924.25;;;16.66;96.08
10958;BME280;5531;42.570;23.676;2022-07-10T06:15:25;91931.56;;;16.76;96.38
10958;BME280;5531;42.570;23.676;2022-07-10T06:17:59;91928.34;;;16.85;96.64
10958;BME280;5531;42.570;23.676;2022-07-10T06:20:28;91924.25;;;16.95;96.74
10958;BME280;5531;42.570;23.676;2022-07-10T06:22:57;91932.06;;;17.01;96.40
10958;BME280;5531;42.570;23.676;2022-07-10T06:25:27;91928.56;;;17.13;95.99
10958;BME280;5531;42.570;23.676;2022-07-10T06:27:56;91923.59;;;17.16;95.92
10958;BME280;5531;42.570;23.676;2022-07-10T06:30:26;91934.25;;;17.21;95.17
10958;BME280;5531;42.570;23.676;2022-07-10T06:32:55;91927.53;;;17.31;94.66
10958;BME280;5531;42.570;23.676;2022-07-10T06:35:26;91927.28;;;17.32;94.39
10958;BME280;5531;42.570;23.676;2022-07-10T06:37:56;91922.81;;;17.33;94.77
10958;BME280;5531;42.570;23.676;2022-07-10T06:40:26;91933.56;;;17.26;91.84
10958;BME280;5531;42.570;23.676;2022-07-10T06:42:57;91921.34;;;17.42;92.84
10958;BME280;5531;42.570;23.676;2022-07-10T06:45:26;91925.75;;;17.53;91.83
10958;BME280;5531;42.570;23.676;2022-07-10T06:47:55;91918.97;;;17.57;91.96
10958;BME280;5531;42.570;23.676;2022-07-10T06:50:28;91931.38;;;17.74;91.26
10958;BME280;5531;42.570;23.676;2022-07-10T06:53:01;91914.22;;;17.93;91.43
10958;BME280;5531;42.570;23.676;2022-07-10T06:55:31;91920.53;;;18.09;91.36
10958;BME280;5531;42.570;23.676;2022-07-10T06:58:01;91921.91;;;18.34;89.10
10958;BME280;5531;42.570;23.676;2022-07-10T07:00:30;91920.63;;;18.59;89.15
10958;BME280;5531;42.570;23.676;2022-07-10T07:03:00;91916.06;;;18.54;86.87
10958;BME280;5531;42.570;23.676;2022-07-10T07:05:32;91915.44;;;18.69;86.00
10958;BME280;5531;42.570;23.676;2022-07-10T07:08:01;91914.19;;;18.77;85.31
10958;BME280;5531;42.570;23.676;2022-07-10T07:10:30;91907.69;;;18.84;86.06
10958;BME280;5531;42.570;23.676;2022-07-10T07:12:59;91922.03;;;18.89;85.00
10958;BME280;5531;42.570;23.676;2022-07-10T07:15:28;91914.94;;;18.94;85.70
10958;BME280;5531;42.570;23.676;2022-07-10T07:18:01;91913.81;;;18.90;85.58
10958;BME280;5531;42.570;23.676;2022-07-10T07:20:40;91920.81;;;18.74;85.97
10958;BME280;5531;42.570;23.676;2022-07-10T07:23:22;91923.81;;;18.83;84.55
10958;BME280;5531;42.570;23.676;2022-07-10T07:25:52;91927.47;;;18.99;85.26
10958;BME280;5531;42.570;23.676;2022-07-10T07:28:22;91921.09;;;19.00;83.51
10958;BME280;5531;42.570;23.676;2022-07-10T07:30:51;91922.91;;;19.21;84.28
10958;BME280;5531;42.570;23.676;2022-07-10T07:33:20;91927.53;;;19.04;83.50
10958;BME280;5531;42.570;23.676;2022-07-10T07:35:52;91922.00;;;18.83;83.52
10958;BME280;5531;42.570;23.676;2022-07-10T07:38:21;91924.69;;;18.89;83.89
10958;BME280;5531;42.570;23.676;2022-07-10T07:40:51;91924.31;;;18.80;85.36
10958;BME280;5531;42.570;23.676;2022-07-10T07:43:20;91927.91;;;18.68;85.26
10958;BME280;5531;42.570;23.676;2022-07-10T07:45:49;91924.66;;;18.61;84.51
10958;BME280;5531;42.570;23.676;2022-07-10T07:48:18;91927.72;;;18.53;86.30
10958;BME280;5531;42.570;23.676;2022-07-10T07:50:51;91926.63;;;18.71;85.31
10958;BME280;5531;42.570;23.676;2022-07-10T07:53:20;91915.19;;;18.93;86.58
10958;BME280;5531;42.570;23.676;2022-07-10T07:55:49;91917.34;;;18.96;84.89
10958;BME280;5531;42.570;23.676;2022-07-10T07:58:19;91914.78;;;19.06;84.91
10958;BME280;5531;42.570;23.676;2022-07-10T08:00:48;91920.34;;;19.32;85.32
10958;BME280;5531;42.570;23.676;2022-07-10T08:03:18;91917.19;;;19.35;84.47
10958;BME280;5531;42.570;23.676;2022-07-10T08:05:48;91916.72;;;19.43;82.91
10958;BME280;5531;42.570;23.676;2022-07-10T08:08:20;91920.06;;;19.60;81.51
10958;BME280;5531;42.570;23.676;2022-07-10T08:10:49;91924.81;;;19.58;81.75
10958;BME280;5531;42.570;23.676;2022-07-10T08:13:19;91916.16;;;19.73;82.56
10958;BME280;5531;42.570;23.676;2022-07-10T08:15:49;91916.56;;;19.87;82.38
10958;BME280;5531;42.570;23.676;2022-07-10T08:18:18;91920.66;;;20.05;78.73
10958;BME280;5531;42.570;23.676;2022-07-10T08:20:47;91919.91;;;20.10;78.83
10958;BME280;5531;42.570;23.676;2022-07-10T08:23:19;91926.38;;;20.24;78.06
10958;BME280;5531;42.570;23.676;2022-07-10T08:25:48;91924.00;;;20.28;79.40
10958;BME280;5531;42.570;23.676;2022-07-10T08:28:17;91909.16;;;20.37;78.61
10958;BME280;5531;42.570;23.676;2022-07-10T08:30:47;91912.91;;;20.46;80.98
10958;BME280;5531;42.570;23.676;2022-07-10T08:33:16;91914.78;;;20.51;78.64
10958;BME280;5531;42.570;23.676;2022-07-10T08:35:46;91911.13;;;20.62;78.06
10958;BME280;5531;42.570;23.676;2022-07-10T08:38:15;91920.50;;;20.70;76.83
10958;BME280;5531;42.570;23.676;2022-07-10T08:40:47;91913.56;;;20.74;76.73
10958;BME280;5531;42.570;23.676;2022-07-10T08:43:16;91916.81;;;20.86;76.65
10958;BME280;5531;42.570;23.676;2022-07-10T08:45:46;91922.41;;;20.85;75.19
10958;BME280;5531;42.570;23.676;2022-07-10T08:48:22;91918.19;;;20.99;73.00
10958;BME280;5531;42.570;23.676;2022-07-10T08:50:53;91928.34;;;21.02;74.10
10958;BME280;5531;42.570;23.676;2022-07-10T08:53:29;91922.44;;;20.90;72.00
10958;BME280;5531;42.570;23.676;2022-07-10T08:56:01;91919.28;;;21.09;71.35
10958;BME280;5531;42.570;23.676;2022-07-10T08:58:33;91918.53;;;21.34;73.30
10958;BME280;5531;42.570;23.676;2022-07-10T09:01:03;91923.09;;;21.49;70.30
10958;BME280;5531;42.570;23.676;2022-07-10T09:03:32;91917.50;;;21.55;68.09
10958;BME280;5531;42.570;23.676;2022-07-10T09:06:02;91917.25;;;21.62;70.54
10958;BME280;5531;42.570;23.676;2022-07-10T09:08:33;91908.16;;;21.48;67.07
10958;BME280;5531;42.570;23.676;2022-07-10T09:11:23;91918.28;;;21.35;68.98
10958;BME280;5531;42.570;23.676;2022-07-10T09:13:56;91927.84;;;21.36;70.75
10958;BME280;5531;42.570;23.676;2022-07-10T09:16:27;91928.09;;;21.35;70.34
10958;BME280;5531;42.570;23.676;2022-07-10T09:18:58;91918.25;;;21.30;68.94
10958;BME280;5531;42.570;23.676;2022-07-10T09:21:43;91915.56;;;21.25;66.92
10958;BME280;5531;42.570;23.676;2022-07-10T09:24:13;91906.00;;;21.19;68.57
10958;BME280;5531;42.570;23.676;2022-07-10T09:26:58;91911.59;;;21.17;70.92
10958;BME280;5531;42.570;23.676;2022-07-10T09:29:30;91915.28;;;21.16;69.12
10958;BME280;5531;42.570;23.676;2022-07-10T09:32:01;91909.19;;;21.26;69.16
10958;BME280;5531;42.570;23.676;2022-07-10T09:34:38;91911.38;;;21.50;67.24
10958;BME280;5531;42.570;23.676;2022-07-10T09:37:25;91906.03;;;21.70;67.44
10958;BME280;5531;42.570;23.676;2022-07-10T09:39:59;91915.63;;;21.82;68.76
10958;BME280;5531;42.570;23.676;2022-07-10T09:42:33;91917.00;;;21.84;63.88
10958;BME280;5531;42.570;23.676;2022-07-10T09:45:18;91909.25;;;21.77;65.76
10958;BME280;5531;42.570;23.676;2022-07-10T09:47:58;91920.19;;;21.86;67.32
10958;BME280;5531;42.570;23.676;2022-07-10T09:50:31;91919.91;;;21.93;66.01
10958;BME280;5531;42.570;23.676;2022-07-10T09:53:03;91911.09;;;22.03;66.17
10958;BME280;5531;42.570;23.676;2022-07-10T09:55:34;91905.72;;;22.13;67.49
10958;BME280;5531;42.570;23.676;2022-07-10T09:58:08;91899.31;;;22.24;65.68
10958;BME280;5531;42.570;23.676;2022-07-10T10:00:38;91900.38;;;22.39;63.00
10958;BME280;5531;42.570;23.676;2022-07-10T10:03:12;91905.41;;;22.45;66.10
10958;BME280;5531;42.570;23.676;2022-07-10T10:05:46;91908.09;;;22.40;64.63
10958;BME280;5531;42.570;23.676;2022-07-10T10:08:25;91906.25;;;22.46;64.50
10958;BME280;5531;42.570;23.676;2022-07-10T10:10:57;91899.28;;;22.45;65.64
10958;BME280;5531;42.570;23.676;2022-07-10T10:13:30;91903.31;;;22.32;60.52
10958;BME280;5531;42.570;23.676;2022-07-10T10:15:59;91898.75;;;22.27;64.41
10958;BME280;5531;42.570;23.676;2022-07-10T10:18:29;91908.41;;;22.23;66.24
10958;BME280;5531;42.570;23.676;2022-07-10T10:20:58;91901.72;;;22.31;64.89
10958;BME280;5531;42.570;23.676;2022-07-10T10:23:25;91890.78;;;22.32;65.37
10958;BME280;5531;42.570;23.676;2022-07-10T10:25:56;91899.84;;;22.37;63.33
10958;BME280;5531;42.570;23.676;2022-07-10T10:28:26;91892.09;;;22.40;64.02
10958;BME280;5531;42.570;23.676;2022-07-10T10:30:59;91881.97;;;22.27;64.89
10958;BME280;5531;42.570;23.676;2022-07-10T10:33:43;91884.94;;;22.15;62.30
10958;BME280;5531;42.570;23.676;2022-07-10T10:36:42;91878.50;;;22.16;64.61
10958;BME280;5531;42.570;23.676;2022-07-10T10:39:10;91876.63;;;22.27;67.20
10958;BME280;5531;42.570;23.676;2022-07-10T10:41:41;91881.69;;;22.33;65.27
10958;BME280;5531;42.570;23.676;2022-07-10T10:44:26;91884.59;;;22.42;64.00
10958;BME280;5531;42.570;23.676;2022-07-10T10:47:02;91881.94;;;22.42;62.45
10958;BME280;5531;42.570;23.676;2022-07-10T10:49:52;91879.53;;;22.41;64.30
10958;BME280;5531;42.570;23.676;2022-07-10T10:52:22;91881.69;;;22.33;69.68
10958;BME280;5531;42.570;23.676;2022-07-10T10:55:08;91877.09;;;22.55;68.31
10958;BME280;5531;42.570;23.676;2022-07-10T10:57:42;91878.94;;;22.64;63.22
10958;BME280;5531;42.570;23.676;2022-07-10T11:00:31;91864.78;;;22.64;62.48
10958;BME280;5531;42.570;23.676;2022-07-10T11:03:21;91868.78;;;22.61;63.16
10958;BME280;5531;42.570;23.676;2022-07-10T11:05:51;91869.84;;;22.65;65.07
10958;BME280;5531;42.570;23.676;2022-07-10T11:08:38;91878.16;;;22.54;61.40
10958;BME280;5531;42.570;23.676;2022-07-10T11:11:38;91880.53;;;22.65;65.99
10958;BME280;5531;42.570;23.676;2022-07-10T11:14:11;91867.19;;;22.60;62.71
10958;BME280;5531;42.570;23.676;2022-07-10T11:16:47;91868.00;;;22.61;62.87
10958;BME280;5531;42.570;23.676;2022-07-10T11:19:24;91869.09;;;22.55;63.54
10958;BME280;5531;42.570;23.676;2022-07-10T11:25:07;91874.50;;;22.24;63.53
10958;BME280;5531;42.570;23.676;2022-07-10T11:27:59;91871.59;;;22.15;66.58
10958;BME280;5531;42.570;23.676;2022-07-10T11:30:49;91871.84;;;22.13;64.89
10958;BME280;5531;42.570;23.676;2022-07-10T11:33:19;91876.16;;;21.99;64.62
10958;BME280;5531;42.570;23.676;2022-07-10T11:35:52;91875.38;;;21.99;66.47
10958;BME280;5531;42.570;23.676;2022-07-10T11:38:24;91881.78;;;21.87;67.45
10958;BME280;5531;42.570;23.676;2022-07-10T11:40:53;91883.63;;;21.82;67.88
10958;BME280;5531;42.570;23.676;2022-07-10T11:43:22;91885.53;;;21.71;66.93
10958;BME280;5531;42.570;23.676;2022-07-10T11:45:53;91888.44;;;21.59;67.66
10958;BME280;5531;42.570;23.676;2022-07-10T11:48:27;91887.91;;;21.52;67.72
10958;BME280;5531;42.570;23.676;2022-07-10T11:50:59;91880.44;;;21.38;67.18
10958;BME280;5531;42.570;23.676;2022-07-10T11:53:28;91877.72;;;21.23;68.77
10958;BME280;5531;42.570;23.676;2022-07-10T11:55:57;91875.59;;;21.15;68.54
10958;BME280;5531;42.570;23.676;2022-07-10T11:58:27;91888.38;;;21.13;68.66
10958;BME280;5531;42.570;23.676;2022-07-10T12:01:01;91880.13;;;21.19;70.54
10958;BME280;5531;42.570;23.676;2022-07-10T12:03:33;91873.72;;;21.15;68.00
10958;BME280;5531;42.570;23.676;2022-07-10T12:06:06;91880.41;;;21.23;68.90
10958;BME280;5531;42.570;23.676;2022-07-10T12:08:43;91876.69;;;21.24;69.52
10958;BME280;5531;42.570;23.676;2022-07-10T12:11:13;91877.72;;;21.23;67.30
10958;BME280;5531;42.570;23.676;2022-07-10T12:13:44;91879.34;;;21.24;66.10
10958;BME280;5531;42.570;23.676;2022-07-10T12:16:14;91871.63;;;21.22;66.23
10958;BME280;5531;42.570;23.676;2022-07-10T12:18:44;91882.28;;;21.33;67.89
10958;BME280;5531;42.570;23.676;2022-07-10T12:21:16;91880.97;;;21.35;68.56
10958;BME280;5531;42.570;23.676;2022-07-10T12:23:46;91886.03;;;21.42;66.91
10958;BME280;5531;42.570;23.676;2022-07-10T12:26:16;91883.91;;;21.54;66.20
10958;BME280;5531;42.570;23.676;2022-07-10T12:28:53;91882.06;;;21.60;65.71
10958;BME280;5531;42.570;23.676;2022-07-10T12:31:25;91876.44;;;21.67;64.23
10958;BME280;5531;42.570;23.676;2022-07-10T12:33:55;91868.69;;;21.75;66.57
10958;BME280;5531;42.570;23.676;2022-07-10T12:36:41;91874.03;;;21.75;64.62
10958;BME280;5531;42.570;23.676;2022-07-10T12:39:12;91876.72;;;21.81;67.63
10958;BME280;5531;42.570;23.676;2022-07-10T12:41:58;91869.22;;;21.88;66.91
10958;BME280;5531;42.570;23.676;2022-07-10T12:44:32;91869.75;;;21.90;61.36
10958;BME280;5531;42.570;23.676;2022-07-10T12:47:03;91870.56;;;21.90;63.03
10958;BME280;5531;42.570;23.676;2022-07-10T12:49:49;91865.25;;;21.90;62.72
10958;BME280;5531;42.570;23.676;2022-07-10T12:52:26;91872.69;;;21.99;65.39
10958;BME280;5531;42.570;23.676;2022-07-10T12:55:12;91866.25;;;22.15;63.54
10958;BME280;5531;42.570;23.676;2022-07-10T12:57:46;91870.47;;;22.37;63.59
10958;BME280;5531;42.570;23.676;2022-07-10T13:00:17;91870.19;;;22.43;63.82
10958;BME280;5531;42.570;23.676;2022-07-10T13:02:47;91854.22;;;22.28;64.14
10958;BME280;5531;42.570;23.676;2022-07-10T13:05:30;91857.13;;;22.42;64.95
10958;BME280;5531;42.570;23.676;2022-07-10T13:08:09;91853.38;;;22.43;64.82
10958;BME280;5531;42.570;23.676;2022-07-10T13:10:42;91853.69;;;22.36;62.52
10958;BME280;5531;42.570;23.676;2022-07-10T13:13:11;91845.13;;;22.34;62.70
10958;BME280;5531;42.570;23.676;2022-07-10T13:15:41;91847.78;;;22.34;64.36
10958;BME280;5531;42.570;23.676;2022-07-10T13:18:16;91842.72;;;22.38;63.83
10958;BME280;5531;42.570;23.676;2022-07-10T13:20:48;91844.06;;;22.25;60.29